sensor_id;sensor_type;location;lat;lon;timestamp;P1;P2;P0
53698;PMS7003;39591;53.952;27.612;2022-12-18T00:04:54;12.3;8.5;5.9
53698;PMS7003;39591;53.952;27.612;2022-12-18T00:09:52;11.8;7.6;5.3
53698;PMS7003;39591;53.952;27.612;2022-12-18T00:14:30;10.2;8.7;6.6
53698;PMS7003;39591;53.952;27.612;2022-12-18T00:20:04;10.2;8.2;5.9
53698;PMS7003;39591;53.952;27.612;2022-12-18T00:24:56;11;8.1;5.8
53698;PMS7003;39591;53.952;27.612;2022-12-18T00:29:42;10;7.6;5.3
53698;PMS7003;39591;53.952;27.612;2022-12-18T00:34:38;10;6.9;5.1
53698;PMS7003;39591;53.952;27.612;2022-12-18T00:39:52;12.7;9;6.5
53698;PMS7003;39591;53.952;27.612;2022-12-18T00:45:04;11.9;8.5;6.1
53698;PMS7003;39591;53.952;27.612;2022-12-18T00:49:28;13.6;9.6;7.2
53698;PMS7003;39591;53.952;27.612;2022-12-18T00:54:54;11.3;8.2;5.2
53698;PMS7003;39591;53.952;27.612;2022-12-18T00:59:52;12.7;9.9;6.6
53698;PMS7003;39591;53.952;27.612;2022-12-18T01:04:30;12.5;9.6;6.4
53698;PMS7003;39591;53.952;27.612;2022-12-18T01:10:03;16.1;11.5;7.6
53698;PMS7003;39591;53.952;27.612;2022-12-18T01:15:05;9.5;6.8;4.6
53698;PMS7003;39591;53.952;27.612;2022-12-18T01:20:00;12.4;9;5.9
53698;PMS7003;39591;53.952;27.612;2022-12-18T01:24:42;12.7;9.8;6.1
53698;PMS7003;39591;53.952;27.612;2022-12-18T01:29:46;11.3;8.5;6.4
53698;PMS7003;39591;53.952;27.612;2022-12-18T01:35:10;9;7.3;4.9
53698;PMS7003;39591;53.952;27.612;2022-12-18T01:39:32;9;7.3;4.9
53698;PMS7003;39591;53.952;27.612;2022-12-18T01:44:58;11.8;9;6.4
53698;PMS7003;39591;53.952;27.612;2022-12-18T01:49:55;11.2;8.2;6.1
53698;PMS7003;39591;53.952;27.612;2022-12-18T01:54:56;13.4;10.4;7.7
53698;PMS7003;39591;53.952;27.612;2022-12-18T02:00:07;12;8;5.2
53698;PMS7003;39591;53.952;27.612;2022-12-18T02:04:58;11.4;7.9;5.4
53698;PMS7003;39591;53.952;27.612;2022-12-18T02:09:21;12;9.4;6.3
53698;PMS7003;39591;53.952;27.612;2022-12-18T02:14:45;12.7;8.1;5.2
53698;PMS7003;39591;53.952;27.612;2022-12-18T02:19:47;10.9;8.1;6
53698;PMS7003;39591;53.952;27.612;2022-12-18T02:25:00;10.4;7.2;4.8
53698;PMS7003;39591;53.952;27.612;2022-12-18T02:29:59;8.3;6.1;4.3
53698;PMS7003;39591;53.952;27.612;2022-12-18T02:34:58;10.4;8.2;6.1
53698;PMS7003;39591;53.952;27.612;2022-12-18T02:39:45;11.1;8.3;5.7
53698;PMS7003;39591;53.952;27.612;2022-12-18T02:44:32;8.3;6;4.4
53698;PMS7003;39591;53.952;27.612;2022-12-18T02:50:11;10;7.1;4.6
53698;PMS7003;39591;53.952;27.612;2022-12-18T02:55:00;10.6;6.9;4.7
53698;PMS7003;39591;53.952;27.612;2022-12-18T02:59:33;11.2;7.8;5.2
53698;PMS7003;39591;53.952;27.612;2022-12-18T03:04:43;10.6;8.4;5.9
53698;PMS7003;39591;53.952;27.612;2022-12-18T03:09:46;9.7;6.3;4.2
53698;PMS7003;39591;53.952;27.612;2022-12-18T03:15:08;9.1;5.7;3.9
53698;PMS7003;39591;53.952;27.612;2022-12-18T03:19:32;8.7;5.1;3.7
53698;PMS7003;39591;53.952;27.612;2022-12-18T03:24:56;10.5;7;4.6
53698;PMS7003;39591;53.952;27.612;2022-12-18T03:29:55;7.6;5.7;4
53698;PMS7003;39591;53.952;27.612;2022-12-18T03:34:33;8;6;4
53698;PMS7003;39591;53.952;27.612;2022-12-18T03:40:08;7.9;5.6;4
53698;PMS7003;39591;53.952;27.612;2022-12-18T03:44:57;9.1;6.2;4.2
53698;PMS7003;39591;53.952;27.612;2022-12-18T03:49:22;7.2;5.4;3.8
53698;PMS7003;39591;53.952;27.612;2022-12-18T03:54:42;6.5;4.3;2.7
53698;PMS7003;39591;53.952;27.612;2022-12-18T03:59:47;7;5.4;3.9
53698;PMS7003;39591;53.952;27.612;2022-12-18T04:05:08;8.9;4.8;3.4
53698;PMS7003;39591;53.952;27.612;2022-12-18T04:09:34;6.6;4.2;2.6
53698;PMS7003;39591;53.952;27.612;2022-12-18T04:14:20;7.3;5.3;3.9
53698;PMS7003;39591;53.952;27.612;2022-12-18T04:19:46;5.8;4.1;3.2
53698;PMS7003;39591;53.952;27.612;2022-12-18T04:24:20;7.9;5.8;4.5
53698;PMS7003;39591;53.952;27.612;2022-12-18T04:30:10;4.9;3.8;2.3
53698;PMS7003;39591;53.952;27.612;2022-12-18T04:35:00;4.9;3.8;2.3
53698;PMS7003;39591;53.952;27.612;2022-12-18T04:39:56;5.4;2.8;2
53698;PMS7003;39591;53.952;27.612;2022-12-18T04:44:32;5;3;1.9
53698;PMS7003;39591;53.952;27.612;2022-12-18T04:49:46;5.3;3.8;2.7
53698;PMS7003;39591;53.952;27.612;2022-12-18T04:55:10;6.9;5.5;4
53698;PMS7003;39591;53.952;27.612;2022-12-18T04:59:32;6.9;5.5;4
53698;PMS7003;39591;53.952;27.612;2022-12-18T05:04:56;6.1;4.1;2.8
53698;PMS7003;39591;53.952;27.612;2022-12-18T05:09:44;6.4;4.9;3.6
53698;PMS7003;39591;53.952;27.612;2022-12-18T05:14:34;5.8;4.2;3.1
53698;PMS7003;39591;53.952;27.612;2022-12-18T05:20:09;6.8;4.4;3.2
53698;PMS7003;39591;53.952;27.612;2022-12-18T05:24:58;6;4.5;3.7
53698;PMS7003;39591;53.952;27.612;2022-12-18T05:29:32;6.3;4.4;2.9
53698;PMS7003;39591;53.952;27.612;2022-12-18T05:34:30;7.2;5.4;4.1
53698;PMS7003;39591;53.952;27.612;2022-12-18T05:39:36;7.4;4.5;3.2
53698;PMS7003;39591;53.952;27.612;2022-12-18T05:45:08;5.8;4.6;3.2
53698;PMS7003;39591;53.952;27.612;2022-12-18T05:49:46;6.3;4.4;3.2
53698;PMS7003;39591;53.952;27.612;2022-12-18T05:54:20;5.6;4.7;3.6
53698;PMS7003;39591;53.952;27.612;2022-12-18T05:59:57;5;3.6;2.6
53698;PMS7003;39591;53.952;27.612;2022-12-18T06:04:20;5.5;3.9;2.7
53698;PMS7003;39591;53.952;27.612;2022-12-18T06:10:08;5.4;3.5;2.2
53698;PMS7003;39591;53.952;27.612;2022-12-18T06:14:56;6.3;4.5;3
53698;PMS7003;39591;53.952;27.612;2022-12-18T06:19:54;6.8;4.6;3.2
53698;PMS7003;39591;53.952;27.612;2022-12-18T06:24:44;6.9;4.6;3.1
53698;PMS7003;39591;53.952;27.612;2022-12-18T06:29:38;5.9;4.5;3.3
53698;PMS7003;39591;53.952;27.612;2022-12-18T06:35:10;4.6;3.1;2
53698;PMS7003;39591;53.952;27.612;2022-12-18T06:39:30;4.6;3.1;2
53698;PMS7003;39591;53.952;27.612;2022-12-18T06:44:56;8.3;6.2;4.1
53698;PMS7003;39591;53.952;27.612;2022-12-18T06:49:56;5.7;4.4;3
53698;PMS7003;39591;53.952;27.612;2022-12-18T06:54:20;7.7;5.4;3.8
53698;PMS7003;39591;53.952;27.612;2022-12-18T07:00:09;6.2;4.9;3.4
53698;PMS7003;39591;53.952;27.612;2022-12-18T07:04:58;6.2;4.3;2.8
53698;PMS7003;39591;53.952;27.612;2022-12-18T07:09:56;6.8;4.8;3.7
53698;PMS7003;39591;53.952;27.612;2022-12-18T07:14:44;6.1;4.6;3.2
53698;PMS7003;39591;53.952;27.612;2022-12-18T07:19:44;5.8;3.6;2.6
53698;PMS7003;39591;53.952;27.612;2022-12-18T07:25:10;11.1;7.5;5.1
53698;PMS7003;39591;53.952;27.612;2022-12-18T07:29:34;11.1;7.5;5.1
53698;PMS7003;39591;53.952;27.612;2022-12-18T07:34:30;7.8;6.4;4.4
53698;PMS7003;39591;53.952;27.612;2022-12-18T07:39:56;10.6;8.3;5.9
53698;PMS7003;39591;53.952;27.612;2022-12-18T07:44:32;8.6;6.2;4.6
53698;PMS7003;39591;53.952;27.612;2022-12-18T07:50:08;9.7;7.5;4.8
53698;PMS7003;39591;53.952;27.612;2022-12-18T07:55:01;9.3;6.2;4.4
53698;PMS7003;39591;53.952;27.612;2022-12-18T07:59:54;6.8;4.8;3.4
53698;PMS7003;39591;53.952;27.612;2022-12-18T08:04:32;8.5;6.7;5
53698;PMS7003;39591;53.952;27.612;2022-12-18T08:09:48;10.1;7.6;5.5
53698;PMS7003;39591;53.952;27.612;2022-12-18T08:15:10;7.5;4.8;3.4
53698;PMS7003;39591;53.952;27.612;2022-12-18T08:19:20;7.5;4.8;3.4
53698;PMS7003;39591;53.952;27.612;2022-12-18T08:24:42;7;5.1;4
53698;PMS7003;39591;53.952;27.612;2022-12-18T08:29:54;6.5;4.8;3.4
53698;PMS7003;39591;53.952;27.612;2022-12-18T08:34:44;8.9;6.7;5.1
53698;PMS7003;39591;53.952;27.612;2022-12-18T08:40:09;8.2;5.5;3.9
53698;PMS7003;39591;53.952;27.612;2022-12-18T08:45:00;8;5.7;4
53698;PMS7003;39591;53.952;27.612;2022-12-18T08:49:43;9.2;6.5;4.6
53698;PMS7003;39591;53.952;27.612;2022-12-18T08:54:20;9.6;6.8;5.2
53698;PMS7003;39591;53.952;27.612;2022-12-18T09:00:09;10.3;7;5.4
53698;PMS7003;39591;53.952;27.612;2022-12-18T09:05:08;8.9;6.9;5.3
53698;PMS7003;39591;53.952;27.612;2022-12-18T09:09:20;8.9;6.5;4.9
53698;PMS7003;39591;53.952;27.612;2022-12-18T09:14:44;8.5;5.3;3.7
53698;PMS7003;39591;53.952;27.612;2022-12-18T09:20:09;7.7;5.4;4.2
53698;PMS7003;39591;53.952;27.612;2022-12-18T09:24:42;8.7;6.9;5
53698;PMS7003;39591;53.952;27.612;2022-12-18T09:29:58;6.3;4.8;3.6
53698;PMS7003;39591;53.952;27.612;2022-12-18T09:35:00;9.4;6.3;4.5
53698;PMS7003;39591;53.952;27.612;2022-12-18T09:39:42;10.1;7.1;4.1
53698;PMS7003;39591;53.952;27.612;2022-12-18T09:44:41;7.3;5.4;4
53698;PMS7003;39591;53.952;27.612;2022-12-18T09:50:14;6.6;4.4;3.1
53698;PMS7003;39591;53.952;27.612;2022-12-18T09:54:58;8.2;5.9;4.4
53698;PMS7003;39591;53.952;27.612;2022-12-18T09:59:32;7.6;5.9;4
53698;PMS7003;39591;53.952;27.612;2022-12-18T10:04:30;9.5;7.3;4.7
53698;PMS7003;39591;53.952;27.612;2022-12-18T10:10:06;7.8;5.4;3.7
53698;PMS7003;39591;53.952;27.612;2022-12-18T10:14:43;7.5;5.5;4.1
53698;PMS7003;39591;53.952;27.612;2022-12-18T10:19:58;9;7;5.4
53698;PMS7003;39591;53.952;27.612;2022-12-18T10:24:59;9.2;6.7;4.7
53698;PMS7003;39591;53.952;27.612;2022-12-18T10:29:43;12.4;8.4;5.8
53698;PMS7003;39591;53.952;27.612;2022-12-18T10:34:20;7.6;6.3;4.6
53698;PMS7003;39591;53.952;27.612;2022-12-18T10:40:10;10.4;7.4;5.7
53698;PMS7003;39591;53.952;27.612;2022-12-18T10:45:09;9.8;7.1;5.2
53698;PMS7003;39591;53.952;27.612;2022-12-18T10:49:33;9.1;7;5
53698;PMS7003;39591;53.952;27.612;2022-12-18T10:54:45;9.2;7.1;4.8
53698;PMS7003;39591;53.952;27.612;2022-12-18T11:00:23;9.8;7.8;5.5
53698;PMS7003;39591;53.952;27.612;2022-12-18T11:04:31;9.6;6.6;4.9
53698;PMS7003;39591;53.952;27.612;2022-12-18T11:10:00;6.8;5.7;4.1
53698;PMS7003;39591;53.952;27.612;2022-12-18T11:14:56;10.6;7.7;5.1
53698;PMS7003;39591;53.952;27.612;2022-12-18T11:19:40;8.5;6.9;5.2
53698;PMS7003;39591;53.952;27.612;2022-12-18T11:24:31;9.6;7;5.1
53698;PMS7003;39591;53.952;27.612;2022-12-18T11:30:07;11.7;8.4;5.4
53698;PMS7003;39591;53.952;27.612;2022-12-18T11:35:11;7.9;5.8;4.3
53698;PMS7003;39591;53.952;27.612;2022-12-18T11:39:24;10.8;6.6;4.8
53698;PMS7003;39591;53.952;27.612;2022-12-18T11:44:46;9.7;6.9;4.9
53698;PMS7003;39591;53.952;27.612;2022-12-18T11:50:10;8.4;6.6;5
53698;PMS7003;39591;53.952;27.612;2022-12-18T11:54:21;10.8;7.8;5.8
53698;PMS7003;39591;53.952;27.612;2022-12-18T12:00:02;11.4;8.1;5.8
53698;PMS7003;39591;53.952;27.612;2022-12-18T12:05:17;10.4;6.6;4.9
53698;PMS7003;39591;53.952;27.612;2022-12-18T12:09:46;6.7;5.1;3.7
53698;PMS7003;39591;53.952;27.612;2022-12-18T12:14:24;9.8;7;5.5
53698;PMS7003;39591;53.952;27.612;2022-12-18T12:20:10;10.6;7.5;5.4
53698;PMS7003;39591;53.952;27.612;2022-12-18T12:25:13;9.3;6.8;4.9
53698;PMS7003;39591;53.952;27.612;2022-12-18T12:29:36;8.7;6.9;5
53698;PMS7003;39591;53.952;27.612;2022-12-18T12:34:31;13;8.8;6.6
53698;PMS7003;39591;53.952;27.612;2022-12-18T12:40:10;10.6;8.3;6.2
53698;PMS7003;39591;53.952;27.612;2022-12-18T12:44:33;12.1;8.1;5.4
53698;PMS7003;39591;53.952;27.612;2022-12-18T12:49:47;10.7;7.4;4.9
53698;PMS7003;39591;53.952;27.612;2022-12-18T12:55:01;8.1;6;4.2
53698;PMS7003;39591;53.952;27.612;2022-12-18T12:59:46;9.6;6.9;5
53698;PMS7003;39591;53.952;27.612;2022-12-18T13:04:21;8.1;6;4.5
53698;PMS7003;39591;53.952;27.612;2022-12-18T13:10:13;5.6;4.2;3.3
53698;PMS7003;39591;53.952;27.612;2022-12-18T13:15:11;6.7;5.1;3.6
53698;PMS7003;39591;53.952;27.612;2022-12-18T13:19:21;6.7;5.1;3.6
53698;PMS7003;39591;53.952;27.612;2022-12-18T13:24:43;6.3;5;3.5
53698;PMS7003;39591;53.952;27.612;2022-12-18T13:29:59;7.1;5.6;3.9
53698;PMS7003;39591;53.952;27.612;2022-12-18T13:35:36;6.3;4.5;2.9
53698;PMS7003;39591;53.952;27.612;2022-12-18T13:45:31;7.5;5.5;4.2
53698;PMS7003;39591;53.952;27.612;2022-12-18T13:49:43;6.5;5;3.6
53698;PMS7003;39591;53.952;27.612;2022-12-18T13:54:33;6.5;4.9;3.6
53698;PMS7003;39591;53.952;27.612;2022-12-18T14:00:16;8.3;5.8;4.2
53698;PMS7003;39591;53.952;27.612;2022-12-18T14:04:59;9.2;7;5.3
53698;PMS7003;39591;53.952;27.612;2022-12-18T14:09:22;9.2;7.7;5.3
53698;PMS7003;39591;53.952;27.612;2022-12-18T14:14:43;8.3;6.4;4.6
53698;PMS7003;39591;53.952;27.612;2022-12-18T14:20:01;9.5;7.4;5.1
53698;PMS7003;39591;53.952;27.612;2022-12-18T14:25:05;9.8;8;5.8
53698;PMS7003;39591;53.952;27.612;2022-12-18T14:30:22;9.8;6.7;4.2
53698;PMS7003;39591;53.952;27.612;2022-12-18T14:35:12;9.8;6.7;4.2
53698;PMS7003;39591;53.952;27.612;2022-12-18T14:39:21;12.2;10;6.9
53698;PMS7003;39591;53.952;27.612;2022-12-18T14:44:33;13.1;9.7;7.2
53698;PMS7003;39591;53.952;27.612;2022-12-18T14:50:12;10.8;8.8;6.3
53698;PMS7003;39591;53.952;27.612;2022-12-18T14:54:59;10.8;8.8;6.3
53698;PMS7003;39591;53.952;27.612;2022-12-18T14:59:43;12.1;9;6.8
53698;PMS7003;39591;53.952;27.612;2022-12-18T15:04:45;11.6;8.5;6.5
53698;PMS7003;39591;53.952;27.612;2022-12-18T15:10:01;10.8;8.6;6.5
53698;PMS7003;39591;53.952;27.612;2022-12-18T15:16:14;12.3;9.9;6.8
53698;PMS7003;39591;53.952;27.612;2022-12-18T15:20:09;10.7;8.3;6
53698;PMS7003;39591;53.952;27.612;2022-12-18T15:25:20;10.8;8.1;6
53698;PMS7003;39591;53.952;27.612;2022-12-18T15:29:43;11.3;8;5.9
53698;PMS7003;39591;53.952;27.612;2022-12-18T15:34:33;10;8.8;6.7
53698;PMS7003;39591;53.952;27.612;2022-12-18T15:40:07;12.8;9.9;7.1
53698;PMS7003;39591;53.952;27.612;2022-12-18T15:44:59;9.3;6.9;4.9
53698;PMS7003;39591;53.952;27.612;2022-12-18T15:49:21;9.7;7.6;5.5
53698;PMS7003;39591;53.952;27.612;2022-12-18T15:54:45;10.2;7.4;5
53698;PMS7003;39591;53.952;27.612;2022-12-18T15:59:59;12.9;10.3;7.2
53698;PMS7003;39591;53.952;27.612;2022-12-18T16:05:01;11.2;8.6;6.3
53698;PMS7003;39591;53.952;27.612;2022-12-18T16:10:09;11.1;9.1;6.8
53698;PMS7003;39591;53.952;27.612;2022-12-18T16:15:12;14.7;11.1;7.9
53698;PMS7003;39591;53.952;27.612;2022-12-18T16:19:43;14.7;11.1;7.9
53698;PMS7003;39591;53.952;27.612;2022-12-18T16:24:45;14.7;11.2;8.2
53698;PMS7003;39591;53.952;27.612;2022-12-18T16:30:12;13.2;10.6;7.5
53698;PMS7003;39591;53.952;27.612;2022-12-18T16:35:02;13.2;11.3;8.9
53698;PMS7003;39591;53.952;27.612;2022-12-18T16:39:21;15.4;12.1;8.6
53698;PMS7003;39591;53.952;27.612;2022-12-18T16:44:45;14.7;11.6;8.4
53698;PMS7003;39591;53.952;27.612;2022-12-18T16:49:59;15.5;12.7;8.9
53698;PMS7003;39591;53.952;27.612;2022-12-18T16:54:59;15.2;12.2;8
53698;PMS7003;39591;53.952;27.612;2022-12-18T17:00:11;17.2;13.5;9.2
53698;PMS7003;39591;53.952;27.612;2022-12-18T17:05:09;17.2;13.5;9.2
53698;PMS7003;39591;53.952;27.612;2022-12-18T17:09:43;15.9;12;9.2
53698;PMS7003;39591;53.952;27.612;2022-12-18T17:14:45;15.7;12.1;8.9
53698;PMS7003;39591;53.952;27.612;2022-12-18T17:20:09;16.4;13;9.8
53698;PMS7003;39591;53.952;27.612;2022-12-18T17:24:57;15.5;12.6;9.3
53698;PMS7003;39591;53.952;27.612;2022-12-18T17:29:33;18.7;13.8;8.9
53698;PMS7003;39591;53.952;27.612;2022-12-18T17:34:21;15.9;12.7;8.8
53698;PMS7003;39591;53.952;27.612;2022-12-18T17:39:59;17.3;13.5;9.4
53698;PMS7003;39591;53.952;27.612;2022-12-18T17:45:11;16.8;13.1;9.1
53698;PMS7003;39591;53.952;27.612;2022-12-18T17:49:21;16.8;13.1;9.1
53698;PMS7003;39591;53.952;27.612;2022-12-18T17:54:33;17;13.1;8.8
53698;PMS7003;39591;53.952;27.612;2022-12-18T17:59:45;18.3;14.7;9.9
53698;PMS7003;39591;53.952;27.612;2022-12-18T18:04:33;19.9;14.9;9.8
53698;PMS7003;39591;53.952;27.612;2022-12-18T18:10:11;19.4;15.1;10.7
53698;PMS7003;39591;53.952;27.612;2022-12-18T18:14:47;19.4;15.1;10.7
53698;PMS7003;39591;53.952;27.612;2022-12-18T18:19:22;30.7;23.3;16.1
53698;PMS7003;39591;53.952;27.612;2022-12-18T18:24:55;17.8;13.7;9.4
53698;PMS7003;39591;53.952;27.612;2022-12-18T18:29:59;17;13.1;9.8
53698;PMS7003;39591;53.952;27.612;2022-12-18T18:35:09;18.1;14;9.3
53698;PMS7003;39591;53.952;27.612;2022-12-18T18:39:21;16.2;11.9;8.1
53698;PMS7003;39591;53.952;27.612;2022-12-18T18:44:45;15.3;11.4;8.3
53698;PMS7003;39591;53.952;27.612;2022-12-18T18:49:45;16.1;12.4;8.9
53698;PMS7003;39591;53.952;27.612;2022-12-18T18:54:49;14;12;8.2
53698;PMS7003;39591;53.952;27.612;2022-12-18T19:00:10;14.9;12.7;8.8
53698;PMS7003;39591;53.952;27.612;2022-12-18T19:04:33;15.7;12.7;8.5
53698;PMS7003;39591;53.952;27.612;2022-12-18T19:09:22;19.9;14.4;10.3
53698;PMS7003;39591;53.952;27.612;2022-12-18T19:14:56;15.4;12.2;8.4
53698;PMS7003;39591;53.952;27.612;2022-12-18T19:19:57;15.2;12.3;9.1
53698;PMS7003;39591;53.952;27.612;2022-12-18T19:25:11;16.5;14.4;9.5
53698;PMS7003;39591;53.952;27.612;2022-12-18T19:29:45;16.5;14.4;9.5
53698;PMS7003;39591;53.952;27.612;2022-12-18T19:34:21;13.3;10;7.5
53698;PMS7003;39591;53.952;27.612;2022-12-18T19:39:21;14.1;11;7.7
53698;PMS7003;39591;53.952;27.612;2022-12-18T19:44:21;14.1;10.8;7
53698;PMS7003;39591;53.952;27.612;2022-12-18T19:50:09;13.9;9.5;6.5
53698;PMS7003;39591;53.952;27.612;2022-12-18T19:54:47;11.1;9.6;6.9
53698;PMS7003;39591;53.952;27.612;2022-12-18T19:59:21;13.2;9.9;7
53698;PMS7003;39591;53.952;27.612;2022-12-18T20:04:45;14.9;11.2;8
53698;PMS7003;39591;53.952;27.612;2022-12-18T20:10:01;14;10.5;7.8
53698;PMS7003;39591;53.952;27.612;2022-12-18T20:15:11;12.7;10.2;7.3
53698;PMS7003;39591;53.952;27.612;2022-12-18T20:19:31;12.7;10.2;7.3
53698;PMS7003;39591;53.952;27.612;2022-12-18T20:24:59;14.9;10.1;7.3
53698;PMS7003;39591;53.952;27.612;2022-12-18T20:29:31;12.8;10.3;6.9
53698;PMS7003;39591;53.952;27.612;2022-12-18T20:35:01;12.7;10.3;7.3
53698;PMS7003;39591;53.952;27.612;2022-12-18T20:39:57;14.7;10.4;7.5
53698;PMS7003;39591;53.952;27.612;2022-12-18T20:44:47;12.3;9.1;6.2
53698;PMS7003;39591;53.952;27.612;2022-12-18T20:49:21;14.1;11;8
53698;PMS7003;39591;53.952;27.612;2022-12-18T20:54:57;13.6;10.8;7.1
53698;PMS7003;39591;53.952;27.612;2022-12-18T20:59:59;12.9;9.2;7
53698;PMS7003;39591;53.952;27.612;2022-12-18T21:05:09;11.5;9.4;6.4
53698;PMS7003;39591;53.952;27.612;2022-12-18T21:09:21;12;9.2;6.1
53698;PMS7003;39591;53.952;27.612;2022-12-18T21:14:47;12.1;9.2;5.8
53698;PMS7003;39591;53.952;27.612;2022-12-18T21:19:43;11.5;8.5;5.7
53698;PMS7003;39591;53.952;27.612;2022-12-18T21:24:33;13.1;10.1;7.3
53698;PMS7003;39591;53.952;27.612;2022-12-18T21:30:11;13.8;10.5;7.1
53698;PMS7003;39591;53.952;27.612;2022-12-18T21:34:47;13.8;10.5;7.1
53698;PMS7003;39591;53.952;27.612;2022-12-18T21:39:21;14.1;10.6;7.7
53698;PMS7003;39591;53.952;27.612;2022-12-18T21:44:55;13.9;9.2;7.1
53698;PMS7003;39591;53.952;27.612;2022-12-18T21:49:47;12.4;9.3;6.1
53698;PMS7003;39591;53.952;27.612;2022-12-18T21:55:07;13.5;10.5;6.9
53698;PMS7003;39591;53.952;27.612;2022-12-18T21:59:22;11.5;9;6.8
53698;PMS7003;39591;53.952;27.612;2022-12-18T22:04:57;13.1;10.1;7.1
53698;PMS7003;39591;53.952;27.612;2022-12-18T22:09:41;14;9.8;6.9
53698;PMS7003;39591;53.952;27.612;2022-12-18T22:14:21;14;10.6;6.8
53698;PMS7003;39591;53.952;27.612;2022-12-18T22:20:07;15.9;10.6;7.3
53698;PMS7003;39591;53.952;27.612;2022-12-18T22:24:43;13.4;9.9;6.4
53698;PMS7003;39591;53.952;27.612;2022-12-18T22:29:53;13.4;10.3;7.1
53698;PMS7003;39591;53.952;27.612;2022-12-18T22:34:51;12.4;9.9;7
53698;PMS7003;39591;53.952;27.612;2022-12-18T22:39:53;15.2;11.6;8.1
53698;PMS7003;39591;53.952;27.612;2022-12-18T22:45:07;13.3;8.9;6
53698;PMS7003;39591;53.952;27.612;2022-12-18T22:49:39;13.7;10.4;7.5
53698;PMS7003;39591;53.952;27.612;2022-12-18T22:55:05;14.1;10.7;7.7
53698;PMS7003;39591;53.952;27.612;2022-12-18T22:59:39;14.8;10.7;7.7
53698;PMS7003;39591;53.952;27.612;2022-12-18T23:04:29;14.1;10.2;6.6
53698;PMS7003;39591;53.952;27.612;2022-12-18T23:10:05;14.8;11.5;7.9
53698;PMS7003;39591;53.952;27.612;2022-12-18T23:14:33;15.9;12.4;8.1
53698;PMS7003;39591;53.952;27.612;2022-12-18T23:19:39;16.1;12;8.2
53698;PMS7003;39591;53.952;27.612;2022-12-18T23:24:53;17.8;13.6;9.7
53698;PMS7003;39591;53.952;27.612;2022-12-18T23:29:57;15.6;11.5;7.7
53698;PMS7003;39591;53.952;27.612;2022-12-18T23:35:05;17.3;13.8;9.1
53698;PMS7003;39591;53.952;27.612;2022-12-18T23:39:29;16.9;13.7;9.1
53698;PMS7003;39591;53.952;27.612;2022-12-18T23:44:41;18.1;14.9;9.8
53698;PMS7003;39591;53.952;27.612;2022-12-18T23:49:21;19.3;14.2;9.7
53698;PMS7003;39591;53.952;27.612;2022-12-18T23:54:21;17.9;14;10.1
